createdAt,value
2024-02-27T10:11:16.066Z,34.41
2024-02-27T10:12:17.024Z,34.21
2024-02-27T10:13:16.977Z,34.01
2024-02-27T10:14:35.325Z,34.20
2024-02-27T10:15:36.361Z,34.30
2024-02-27T10:16:36.290Z,33.90
2024-02-27T10:23:54.580Z,34.99
2024-02-27T10:24:55.649Z,34.69
2024-02-27T10:38:35.491Z,35.19
2024-02-27T10:39:36.681Z,35.59
2024-02-27T10:41:18.618Z,34.50
2024-02-27T10:42:19.616Z,34.09
2024-02-27T10:43:19.680Z,34.00
2024-02-27T10:44:19.854Z,33.90
2024-02-27T10:45:48.777Z,34.20
2024-02-27T10:46:49.683Z,34.20
2024-02-27T10:47:49.702Z,34.20
2024-02-27T10:48:49.932Z,34.00
2024-02-27T10:49:49.883Z,34.00
2024-02-27T10:50:49.809Z,34.00
2024-02-27T10:51:49.881Z,34.20
2024-02-27T10:52:49.913Z,34.31
2024-02-27T10:53:50.004Z,34.21
2024-02-27T10:54:50.066Z,34.21
2024-02-27T10:55:50.153Z,34.21
2024-02-27T10:56:50.139Z,33.81
2024-02-27T10:57:50.321Z,33.81
2024-02-27T10:58:50.291Z,33.91
2024-02-27T10:59:50.339Z,34.11
2024-02-27T11:00:50.465Z,34.21
2024-02-27T11:01:50.563Z,34.21
2024-02-27T11:02:50.539Z,34.41
2024-02-27T11:03:50.718Z,34.41
2024-02-27T11:04:50.701Z,34.43
2024-02-27T11:05:50.857Z,34.43
2024-02-27T11:06:50.837Z,34.53
2024-02-27T11:07:50.853Z,34.63
2024-02-27T11:08:50.924Z,34.63
2024-02-27T11:09:51.114Z,34.73
2024-02-27T11:10:51.093Z,34.73
2024-02-27T11:11:51.308Z,34.73
2024-02-27T11:12:52.555Z,34.83
2024-02-27T11:13:52.181Z,34.83
2024-02-27T11:14:51.301Z,34.83
2024-02-27T11:15:51.457Z,34.94
2024-02-27T11:16:51.441Z,34.94
2024-02-27T11:17:52.460Z,34.94
2024-02-27T11:18:51.665Z,35.05
2024-02-27T11:19:51.763Z,35.05
2024-02-27T11:20:51.766Z,35.05
2024-02-27T11:21:51.924Z,35.05
2024-02-27T11:22:51.917Z,35.14
2024-02-27T11:23:52.034Z,35.05
2024-02-27T11:24:52.214Z,35.14
2024-02-27T11:25:52.166Z,35.14
2024-02-27T11:26:52.222Z,35.14
2024-02-27T11:27:52.361Z,35.24
2024-02-27T11:28:52.397Z,35.26
2024-02-27T11:29:52.460Z,35.26
2024-02-27T11:30:52.581Z,35.26
2024-02-27T11:31:52.594Z,35.26
2024-02-27T11:32:52.684Z,35.26
2024-02-27T11:33:53.054Z,35.36
2024-02-27T11:34:52.937Z,35.36
2024-02-27T11:35:52.844Z,35.36
2024-02-27T11:36:52.959Z,35.36
2024-02-27T11:37:52.972Z,35.36
2024-02-27T11:38:53.037Z,35.36
2024-02-27T11:39:53.177Z,35.36
2024-02-27T11:40:53.184Z,35.46
2024-02-27T11:41:53.374Z,35.46
2024-02-27T11:42:53.346Z,35.36
2024-02-27T11:43:53.416Z,35.46
2024-02-27T11:44:53.480Z,35.46
2024-02-27T11:45:53.732Z,35.46
2024-02-27T11:46:53.689Z,35.46
2024-02-27T11:47:54.043Z,35.46
2024-02-27T11:48:53.977Z,35.46
2024-02-27T11:49:53.916Z,35.46
2024-02-27T11:50:53.961Z,35.46
2024-02-27T11:51:54.030Z,35.56
2024-02-27T11:52:54.057Z,35.56
2024-02-27T11:53:54.192Z,35.56
2024-02-27T11:54:54.255Z,35.56
2024-02-27T11:55:54.307Z,35.56
2024-02-27T12:19:23.185Z,36.52
2024-02-27T12:20:09.933Z,36.22
2024-02-27T12:21:10.950Z,36.22
2024-02-27T12:34:49.438Z,36.91
2024-02-27T12:35:50.403Z,36.01
2024-02-27T12:36:50.531Z,36.11
2024-02-27T12:37:50.492Z,36.80
2024-02-27T12:38:50.554Z,36.21
2024-02-27T12:39:50.650Z,36.59
2024-02-27T12:40:50.653Z,37.29
2024-02-27T12:41:50.797Z,37.29
2024-02-27T12:42:50.996Z,36.99
2024-02-27T12:43:50.862Z,37.19
2024-02-27T12:44:50.909Z,36.99
2024-02-27T12:45:51.164Z,37.19
2024-02-27T12:46:51.315Z,37.59
2024-02-27T12:47:51.967Z,36.79
2024-02-27T12:48:52.164Z,37.19
2024-02-27T12:49:51.343Z,37.19
2024-02-27T12:50:51.312Z,36.99
2024-02-27T12:51:51.433Z,37.57
2024-02-27T12:52:58.756Z,36.97
2024-02-27T12:53:52.345Z,37.17
2024-02-27T12:54:51.599Z,37.17
2024-02-27T12:55:51.655Z,37.87
2024-02-27T12:56:51.712Z,37.47
2024-02-27T12:57:51.879Z,37.47
2024-02-27T12:58:51.846Z,37.17
2024-02-27T13:00:00.558Z,37.37
2024-02-27T13:01:01.690Z,38.27
2024-02-27T13:02:01.674Z,37.47
2024-02-27T13:03:34.535Z,38.46
2024-02-27T13:04:35.535Z,38.07
2024-02-27T13:05:35.721Z,37.47
2024-02-27T13:06:35.763Z,37.17
2024-02-27T13:07:35.801Z,37.47
2024-02-27T13:09:05.700Z,38.07
2024-02-27T13:10:06.686Z,37.67
2024-02-27T13:11:06.826Z,37.87
2024-02-27T13:12:06.889Z,37.67
2024-02-27T13:13:06.926Z,37.77
2024-02-27T13:14:06.994Z,37.77
2024-02-27T13:15:07.166Z,37.57
2024-02-27T13:16:07.137Z,38.56
2024-02-27T13:17:07.238Z,37.67
2024-02-27T13:18:08.315Z,37.77
2024-02-27T13:19:07.539Z,37.97
2024-02-27T13:20:07.456Z,37.97
2024-02-27T13:21:07.543Z,39.06
2024-02-27T13:22:07.578Z,38.07
2024-02-27T13:23:13.792Z,38.27
2024-02-27T13:24:07.762Z,38.17
2024-02-27T13:25:07.842Z,38.17
2024-02-27T13:26:07.899Z,37.87
2024-02-27T13:27:08.000Z,37.77
2024-02-27T13:28:08.019Z,37.97
2024-02-27T13:29:08.133Z,38.17
2024-02-27T13:30:08.203Z,38.37
2024-02-27T13:31:08.316Z,38.27
2024-02-27T13:32:08.362Z,38.27
2024-02-27T13:33:08.533Z,38.17
2024-02-27T13:34:08.739Z,37.87
2024-02-27T13:35:08.754Z,38.27
2024-02-27T13:36:08.689Z,38.86
2024-02-27T13:37:08.758Z,38.46
2024-02-27T13:38:08.799Z,38.67
2024-02-27T13:39:08.939Z,38.76
2024-02-27T13:40:08.949Z,39.06
2024-02-27T13:41:09.051Z,39.26
2024-02-27T13:42:09.132Z,38.86
2024-02-27T13:43:09.170Z,38.56
2024-02-27T13:44:09.327Z,38.67
2024-02-27T13:45:09.394Z,38.76
2024-02-27T13:46:11.254Z,38.67
2024-02-27T13:47:10.054Z,38.76
2024-02-27T13:48:09.614Z,38.67
2024-02-27T13:49:09.670Z,38.56
2024-02-27T13:50:09.709Z,38.86
2024-02-27T13:51:09.822Z,38.56
2024-02-27T13:52:09.887Z,38.76
2024-02-27T13:53:09.954Z,39.06
2024-02-27T13:54:10.144Z,39.06
2024-02-27T13:55:10.098Z,39.16
2024-02-27T13:56:10.190Z,38.86
2024-02-27T13:57:10.301Z,38.86
2024-02-27T13:58:10.392Z,38.86
2024-02-27T13:59:11.220Z,38.96
2024-02-27T14:00:10.805Z,38.86
2024-02-27T14:01:10.747Z,38.96
2024-02-27T14:02:10.661Z,38.86
2024-02-27T14:03:11.027Z,38.96
2024-02-27T14:04:10.915Z,38.96
2024-02-27T14:05:10.878Z,39.66
2024-02-27T14:06:11.105Z,39.46
2024-02-27T14:07:02.878Z,39.36
2024-02-27T14:08:07.499Z,39.26
2024-02-27T14:09:08.277Z,38.95
2024-02-27T14:10:08.348Z,39.46
2024-02-27T14:11:08.532Z,39.25
2024-02-27T14:12:08.530Z,39.04
2024-02-27T14:13:08.651Z,39.04
2024-02-27T14:14:14.097Z,38.15
2024-02-27T14:15:10.109Z,36.85
2024-02-27T14:16:08.764Z,36.46
2024-02-27T14:17:08.802Z,36.07
2024-02-27T14:18:09.041Z,35.58
2024-02-27T14:19:08.993Z,35.17
2024-02-27T14:20:08.998Z,35.38
2024-02-27T14:21:09.071Z,35.59
2024-02-27T14:22:09.092Z,34.30
2024-02-27T14:23:09.181Z,35.10
2024-02-27T14:24:09.281Z,34.39
2024-02-27T14:25:09.295Z,35.19
2024-02-27T14:26:09.355Z,35.59
2024-02-27T14:27:09.463Z,35.99
2024-02-27T14:28:09.490Z,36.59
2024-02-27T14:29:09.611Z,36.09
2024-02-27T14:30:09.744Z,36.79
2024-02-27T14:31:09.724Z,36.69
2024-02-27T14:32:09.780Z,36.79
2024-02-27T14:33:10.013Z,38.48
2024-02-27T14:34:09.931Z,37.19
2024-02-27T14:35:10.071Z,37.19
2024-02-27T14:36:10.044Z,36.79
2024-02-27T14:37:10.104Z,36.99
2024-02-27T14:38:10.148Z,37.29
2024-02-27T14:39:10.284Z,37.08
2024-02-27T14:39:46.632Z,37.29
2024-02-27T14:40:47.535Z,37.19
2024-02-27T14:41:47.620Z,37.19
2024-02-27T14:42:47.764Z,37.19
2024-02-27T14:43:47.759Z,37.19
2024-02-27T14:44:47.816Z,36.89
2024-02-27T14:45:47.958Z,37.08
2024-02-27T14:46:47.950Z,37.07
2024-02-27T14:47:48.101Z,37.17
2024-02-27T14:48:48.138Z,36.97
2024-02-27T14:49:48.303Z,37.17
2024-02-27T14:50:48.355Z,37.07
2024-02-27T14:51:48.766Z,37.07
2024-02-27T14:52:49.017Z,37.17
2024-02-27T14:53:48.458Z,37.17
2024-02-27T14:54:48.567Z,37.17
2024-02-27T14:55:48.563Z,37.17
2024-02-27T14:56:48.626Z,37.27
2024-02-27T14:57:48.751Z,37.77
2024-02-27T14:58:48.705Z,37.47
2024-02-27T14:59:48.774Z,37.57
2024-02-27T15:00:48.936Z,37.47
2024-02-27T15:01:56.918Z,37.57
2024-02-27T15:02:48.931Z,37.47
2024-02-27T15:03:49.118Z,37.97
2024-02-27T15:04:49.134Z,37.57
2024-02-27T15:05:49.156Z,37.47
2024-02-27T15:06:49.262Z,37.67
2024-02-27T15:07:49.319Z,37.57
2024-02-27T15:08:49.330Z,37.47
2024-02-27T15:09:49.547Z,37.97
2024-02-27T15:10:49.511Z,37.77
2024-02-27T15:11:49.573Z,37.57
2024-02-27T15:12:49.655Z,37.67
2024-02-27T15:13:49.675Z,37.77
2024-02-27T15:14:49.713Z,37.77
2024-02-27T15:15:49.928Z,37.87
2024-02-27T15:16:49.834Z,37.77
2024-02-27T15:17:49.981Z,37.57
2024-02-27T15:18:50.026Z,37.67
2024-02-27T15:19:50.208Z,37.77
2024-02-27T15:20:50.061Z,37.97
2024-02-27T15:21:50.134Z,37.97
2024-02-27T15:22:50.217Z,37.77
2024-02-27T15:23:50.251Z,38.07
2024-02-27T15:24:50.335Z,38.17
2024-02-27T15:25:50.401Z,38.56
2024-02-27T15:26:50.437Z,38.17
2024-02-27T15:27:50.550Z,38.76
2024-02-27T15:28:50.556Z,38.56
2024-02-27T15:29:50.654Z,38.17
2024-02-27T15:30:50.720Z,37.87
2024-02-27T15:31:50.750Z,37.79
2024-02-27T15:32:50.816Z,38.39
2024-02-27T15:33:51.123Z,38.09
2024-02-27T15:34:51.067Z,37.49
2024-02-27T15:35:51.040Z,36.79
2024-02-27T15:36:51.159Z,36.89
